createdAt,value
2023-04-11T00:01:33.694Z,2.10
2023-04-11T00:03:59.711Z,2.08
2023-04-11T00:06:25.758Z,2.00
2023-04-11T00:08:52.166Z,1.65
2023-04-11T00:11:18.441Z,1.80
2023-04-11T00:13:44.632Z,1.65
2023-04-11T00:16:10.991Z,1.50
2023-04-11T00:18:38.900Z,1.70
2023-04-11T00:21:09.640Z,1.60
2023-04-11T00:23:36.087Z,1.40
2023-04-11T00:26:02.625Z,1.60
2023-04-11T00:28:28.576Z,2.08
2023-04-11T00:30:54.592Z,1.35
2023-04-11T00:33:20.527Z,1.40
2023-04-11T00:35:47.097Z,1.40
2023-04-11T00:38:13.045Z,1.60
2023-04-11T00:40:39.093Z,1.40
2023-04-11T00:43:05.082Z,1.30
2023-04-11T00:45:31.840Z,1.30
2023-04-11T00:47:58.004Z,1.38
2023-04-11T00:50:24.422Z,1.00
2023-04-11T00:52:51.253Z,1.30
2023-04-11T00:55:17.151Z,1.42
2023-04-11T00:57:44.122Z,1.65
2023-04-11T01:00:11.181Z,1.55
2023-04-11T01:02:42.410Z,1.17
2023-04-11T01:05:10.450Z,1.40
2023-04-11T01:07:37.459Z,1.35
2023-04-11T01:10:05.198Z,1.63
2023-04-11T01:12:32.541Z,1.42
2023-04-11T01:14:58.747Z,1.50
2023-04-11T01:17:25.844Z,1.80
2023-04-11T01:19:52.222Z,1.75
2023-04-11T01:22:22.441Z,2.05
2023-04-11T01:24:48.793Z,2.00
2023-04-11T01:27:15.060Z,1.92
2023-04-11T01:29:40.967Z,1.77
2023-04-11T01:32:07.389Z,2.05
2023-04-11T01:34:35.304Z,2.20
2023-04-11T01:37:02.006Z,1.73
2023-04-11T01:39:28.084Z,2.10
2023-04-11T01:41:56.794Z,2.00
2023-04-11T01:44:24.831Z,2.33
2023-04-11T01:46:50.868Z,2.85
2023-04-11T01:49:18.196Z,2.70
2023-04-11T01:51:45.131Z,1.85
2023-04-11T01:54:11.144Z,2.20
2023-04-11T01:56:37.096Z,2.25
2023-04-11T01:59:03.785Z,2.63
2023-04-11T02:01:29.944Z,2.40
2023-04-11T02:03:55.985Z,2.45
2023-04-11T02:06:21.993Z,2.92
2023-04-11T02:08:47.898Z,2.00
2023-04-11T02:11:13.813Z,2.40
2023-04-11T02:13:39.766Z,2.38
2023-04-11T02:16:15.619Z,2.97
2023-04-11T02:18:42.680Z,3.35
2023-04-11T02:21:08.742Z,3.00
2023-04-11T02:23:34.751Z,3.20
2023-04-11T02:26:01.727Z,3.53
2023-04-11T02:28:27.680Z,3.63
2023-04-11T02:30:53.798Z,4.78
2023-04-11T02:33:19.929Z,3.65
2023-04-11T02:35:46.726Z,4.13
2023-04-11T02:38:12.838Z,4.13
2023-04-11T02:40:38.740Z,4.32
2023-04-11T02:43:04.666Z,4.38
2023-04-11T02:45:30.887Z,3.80
2023-04-11T02:47:57.720Z,2.97
2023-04-11T02:50:26.394Z,3.55
2023-04-11T02:52:52.835Z,3.17
2023-04-11T02:55:19.118Z,3.60
2023-04-11T02:57:45.059Z,3.78
2023-04-11T03:00:11.508Z,3.60
2023-04-11T03:02:37.588Z,4.13
2023-04-11T03:05:04.571Z,4.13
2023-04-11T03:07:31.801Z,4.35
2023-04-11T03:09:58.270Z,3.58
2023-04-11T03:12:24.190Z,4.20
2023-04-11T03:14:50.263Z,5.18
2023-04-11T03:17:16.242Z,4.63
2023-04-11T03:19:42.122Z,3.85
2023-04-11T03:22:10.836Z,4.15
2023-04-11T03:24:40.168Z,4.78
2023-04-11T03:27:06.283Z,3.92
2023-04-11T03:29:32.266Z,4.60
2023-04-11T03:31:59.097Z,4.35
2023-04-11T03:34:25.988Z,5.70
2023-04-11T03:36:52.199Z,4.00
2023-04-11T03:39:21.391Z,4.50
2023-04-11T03:41:48.190Z,4.35
2023-04-11T03:44:14.754Z,5.45
2023-04-11T03:46:40.646Z,4.38
2023-04-11T03:49:06.642Z,4.75
2023-04-11T03:51:33.000Z,4.95
2023-04-11T03:53:58.961Z,4.88
2023-04-11T03:56:25.033Z,4.55
2023-04-11T03:58:51.019Z,6.15
2023-04-11T04:01:16.956Z,5.05
2023-04-11T04:03:43.128Z,5.20
2023-04-11T04:06:09.321Z,4.38
2023-04-11T04:08:35.273Z,5.78
2023-04-11T04:11:01.146Z,5.20
2023-04-11T04:13:27.076Z,4.80
2023-04-11T04:15:53.179Z,5.05
2023-04-11T04:18:19.144Z,4.55
2023-04-11T04:20:46.370Z,4.70
2023-04-11T04:23:13.376Z,5.10
2023-04-11T04:25:41.439Z,6.10
2023-04-11T04:28:09.213Z,4.43
2023-04-11T04:30:37.305Z,4.75
2023-04-11T04:33:03.796Z,4.10
2023-04-11T04:35:29.734Z,5.20
2023-04-11T04:37:55.701Z,4.95
2023-04-11T04:40:21.921Z,4.65
2023-04-11T04:42:57.641Z,5.50
2023-04-11T04:45:24.776Z,6.47
2023-04-11T04:47:50.734Z,6.07
2023-04-11T04:50:16.704Z,6.38
2023-04-11T04:52:42.697Z,7.20
2023-04-11T04:55:08.901Z,4.95
2023-04-11T04:57:34.821Z,5.78
2023-04-11T05:00:00.777Z,6.35
2023-04-11T05:02:32.152Z,5.90
2023-04-11T05:05:03.292Z,5.60
2023-04-11T05:07:29.806Z,5.65
2023-04-11T05:09:55.684Z,6.07
2023-04-11T05:12:26.330Z,6.30
2023-04-11T05:14:52.485Z,5.20
2023-04-11T05:17:18.476Z,4.60
2023-04-11T05:19:45.080Z,4.68
2023-04-11T05:22:10.986Z,4.97
2023-04-11T05:24:36.929Z,5.07
2023-04-11T05:27:02.965Z,3.38
2023-04-11T05:29:29.337Z,3.38
2023-04-11T05:31:55.394Z,3.67
2023-04-11T05:34:21.328Z,3.50
2023-04-11T05:36:47.301Z,3.90
2023-04-11T05:39:13.319Z,5.43
2023-04-11T05:41:39.300Z,5.30
2023-04-11T05:44:05.398Z,5.95
2023-04-11T05:46:34.976Z,6.78
2023-04-11T05:49:01.048Z,5.47
2023-04-11T05:51:27.027Z,5.88
2023-04-11T05:53:52.949Z,6.18
2023-04-11T05:56:19.113Z,5.15
2023-04-11T05:58:45.061Z,5.65
2023-04-11T06:01:17.778Z,5.32
2023-04-11T06:03:45.500Z,5.80
2023-04-11T06:06:11.706Z,6.50
2023-04-11T06:08:37.924Z,6.75
2023-04-11T06:11:04.243Z,6.00
2023-04-11T06:13:30.187Z,7.13
2023-04-11T06:15:56.188Z,5.75
2023-04-11T06:18:22.250Z,5.00
2023-04-11T06:20:48.931Z,5.05
2023-04-11T06:23:14.909Z,4.50
2023-04-11T06:25:40.975Z,3.95
2023-04-11T06:28:07.116Z,4.00
2023-04-11T06:30:32.987Z,4.88
2023-04-11T06:32:58.976Z,4.40
2023-04-11T06:35:25.061Z,4.35
2023-04-11T06:37:51.599Z,4.53
2023-04-11T06:40:19.868Z,4.38
2023-04-11T06:42:46.709Z,4.63
2023-04-11T06:45:13.353Z,6.32
2023-04-11T06:47:39.830Z,4.15
2023-04-11T06:50:06.410Z,3.95
2023-04-11T06:52:32.298Z,3.80
2023-04-11T06:54:58.265Z,3.47
2023-04-11T06:57:24.359Z,3.90
2023-04-11T06:59:50.446Z,4.22
2023-04-11T07:02:16.435Z,4.93
2023-04-11T07:04:42.657Z,4.35
2023-04-11T07:07:08.654Z,4.60
2023-04-11T07:09:35.267Z,5.22
2023-04-11T07:12:01.549Z,5.32
2023-04-11T07:14:27.608Z,5.57
2023-04-11T07:16:53.528Z,5.95
2023-04-11T07:19:19.621Z,6.15
2023-04-11T07:21:45.550Z,5.32
2023-04-11T07:24:12.581Z,5.97
2023-04-11T07:26:41.644Z,6.47
2023-04-11T07:29:10.993Z,5.68
2023-04-11T07:31:38.346Z,5.50
2023-04-11T07:34:04.336Z,4.90
2023-04-11T07:36:30.948Z,5.03
2023-04-11T07:38:59.171Z,5.40
2023-04-11T07:41:25.130Z,5.15
2023-04-11T07:43:51.037Z,4.18
2023-04-11T07:46:17.105Z,4.72
2023-04-11T07:48:43.132Z,4.20
2023-04-11T07:51:09.154Z,4.35
2023-04-11T07:53:35.694Z,4.43
2023-04-11T07:56:01.729Z,4.75
2023-04-11T07:58:27.898Z,4.63
2023-04-11T08:00:53.908Z,4.05
2023-04-11T08:03:20.356Z,3.38
2023-04-11T08:05:46.698Z,4.22
2023-04-11T08:08:13.024Z,4.22
2023-04-11T08:10:38.953Z,3.67
2023-04-11T08:13:04.916Z,3.08
2023-04-11T08:15:31.187Z,3.80
2023-04-11T08:17:57.259Z,4.20
2023-04-11T08:20:24.011Z,3.28
2023-04-11T08:22:50.093Z,3.22
2023-04-11T08:25:19.274Z,3.72
2023-04-11T08:27:45.211Z,3.53
2023-04-11T08:30:11.635Z,5.20
2023-04-11T08:32:38.063Z,4.78
2023-04-11T08:35:04.786Z,3.58
2023-04-11T08:37:30.885Z,3.53
2023-04-11T08:39:56.940Z,4.32
2023-04-11T08:42:24.465Z,4.03
2023-04-11T08:44:58.501Z,3.22
2023-04-11T08:47:24.963Z,3.50
2023-04-11T08:49:52.100Z,3.75
2023-04-11T08:52:19.508Z,3.25
2023-04-11T08:54:46.196Z,2.67
2023-04-11T08:57:25.446Z,3.17
2023-04-11T08:59:53.335Z,3.78
2023-04-11T09:02:19.464Z,3.70
2023-04-11T09:04:46.721Z,2.25
2023-04-11T09:07:14.899Z,2.58
2023-04-11T09:09:40.979Z,2.63
2023-04-11T09:12:08.291Z,2.50
2023-04-11T09:14:34.546Z,2.60
2023-04-11T09:17:05.724Z,2.85
2023-04-11T09:19:33.511Z,2.17
2023-04-11T09:22:01.150Z,2.30
2023-04-11T09:24:29.373Z,2.00
2023-04-11T09:27:08.086Z,2.45
2023-04-11T09:29:42.812Z,2.25
2023-04-11T09:32:31.935Z,3.33
2023-04-11T09:35:27.831Z,2.83
2023-04-11T09:37:56.088Z,1.77
2023-04-11T09:40:27.038Z,2.47
2023-04-11T09:42:58.591Z,2.65
2023-04-11T09:45:25.512Z,2.53
2023-04-11T09:47:53.835Z,1.80
2023-04-11T09:50:20.159Z,2.47
2023-04-11T09:52:46.675Z,2.22
2023-04-11T09:55:18.927Z,2.45
2023-04-11T09:57:47.392Z,2.10
2023-04-11T10:00:16.253Z,2.10
2023-04-11T10:02:44.451Z,2.10
2023-04-11T10:05:13.669Z,1.70
2023-04-11T10:07:47.496Z,2.20
2023-04-11T10:10:19.381Z,1.92
2023-04-11T10:12:45.758Z,1.95
2023-04-11T10:15:12.250Z,1.90
2023-04-11T10:17:39.977Z,1.85
2023-04-11T10:20:42.745Z,1.92
2023-04-11T10:23:09.662Z,1.90
2023-04-11T10:25:50.311Z,3.00
2023-04-11T10:28:34.468Z,1.83
2023-04-11T10:31:22.346Z,2.15
2023-04-11T10:34:13.691Z,2.03
2023-04-11T10:37:05.484Z,1.90
2023-04-11T10:39:59.810Z,1.50
2023-04-11T10:42:46.099Z,1.65
2023-04-11T10:45:25.886Z,1.92
2023-04-11T10:48:02.942Z,1.75
2023-04-11T10:50:36.233Z,1.70
2023-04-11T10:53:04.703Z,1.77
2023-04-11T10:55:43.270Z,1.80
2023-04-11T10:58:19.064Z,1.55
2023-04-11T11:00:51.712Z,1.65
2023-04-11T11:03:22.997Z,1.70
2023-04-11T11:06:02.427Z,1.67
2023-04-11T11:08:42.197Z,2.00
2023-04-11T11:11:09.903Z,2.08
2023-04-11T11:13:43.357Z,2.00
2023-04-11T11:16:13.763Z,2.15
2023-04-11T11:18:39.918Z,1.88
2023-04-11T11:21:09.289Z,1.80
2023-04-11T11:23:40.164Z,1.70
2023-04-11T11:26:06.984Z,1.52
2023-04-11T11:28:32.893Z,1.30
2023-04-11T11:30:58.829Z,1.45
2023-04-11T11:33:28.608Z,1.73
2023-04-11T11:36:03.787Z,1.88
2023-04-11T11:38:30.712Z,2.05
2023-04-11T11:40:58.301Z,4.47
2023-04-11T11:43:27.955Z,1.50
2023-04-11T11:46:14.305Z,1.40
2023-04-11T11:48:58.123Z,1.80
2023-04-11T11:51:24.997Z,1.45
2023-04-11T11:54:04.954Z,2.33
2023-04-11T11:56:31.155Z,1.83
2023-04-11T11:58:57.293Z,1.55
2023-04-11T12:01:23.307Z,1.40
2023-04-11T12:03:52.995Z,1.55
2023-04-11T12:06:20.126Z,1.67
2023-04-11T12:08:51.282Z,1.70
2023-04-11T12:11:17.810Z,1.98
2023-04-11T12:13:47.148Z,1.58
2023-04-11T12:16:14.072Z,1.90
2023-04-11T12:18:41.626Z,1.42
2023-04-11T12:21:07.543Z,1.67
2023-04-11T12:23:33.494Z,2.28
2023-04-11T12:25:59.973Z,1.70
2023-04-11T12:28:25.906Z,1.17
2023-04-11T12:30:51.833Z,1.38
2023-04-11T12:33:17.735Z,2.13
2023-04-11T12:35:43.658Z,1.70
2023-04-11T12:38:10.938Z,1.73
2023-04-11T12:40:39.284Z,1.67
2023-04-11T12:43:05.332Z,1.55
2023-04-11T12:45:34.180Z,1.33
2023-04-11T12:48:00.994Z,2.55
2023-04-11T12:50:27.042Z,1.52
2023-04-11T12:52:53.014Z,1.45
2023-04-11T12:55:19.149Z,1.55
2023-04-11T12:57:45.311Z,1.63
2023-04-11T13:00:12.125Z,1.70
2023-04-11T13:02:43.864Z,1.80
2023-04-11T13:05:13.222Z,1.23
2023-04-11T13:07:39.289Z,1.50
2023-04-11T13:10:08.919Z,1.40
2023-04-11T13:12:40.282Z,2.05
2023-04-11T13:15:14.246Z,2.33
2023-04-11T13:17:40.309Z,2.38
2023-04-11T13:20:09.194Z,2.10
2023-04-11T13:22:36.723Z,1.80
2023-04-11T13:25:03.067Z,1.85
2023-04-11T13:27:29.018Z,1.65
2023-04-11T13:29:54.974Z,1.92
2023-04-11T13:32:20.785Z,1.77
2023-04-11T13:34:46.678Z,2.03
2023-04-11T13:37:12.632Z,1.58
2023-04-11T13:39:38.522Z,1.80
2023-04-11T13:42:04.531Z,1.77
2023-04-11T13:44:32.854Z,2.03
2023-04-11T13:46:58.998Z,1.95
2023-04-11T13:49:24.983Z,1.55
2023-04-11T13:51:50.839Z,2.05
2023-04-11T13:54:16.721Z,1.45
2023-04-11T13:56:42.581Z,1.05
2023-04-11T13:59:08.496Z,1.70
2023-04-11T14:01:34.418Z,1.88
2023-04-11T14:04:00.656Z,1.95
2023-04-11T14:06:26.822Z,1.63
2023-04-11T14:08:52.653Z,1.67
2023-04-11T14:11:18.526Z,1.95
2023-04-11T14:13:44.346Z,2.15
2023-04-11T14:16:10.470Z,1.10
2023-04-11T14:18:36.502Z,1.65
2023-04-11T14:21:05.173Z,1.35
2023-04-11T14:23:31.115Z,2.42
2023-04-11T14:25:57.175Z,1.52
2023-04-11T14:28:26.494Z,1.67
2023-04-11T14:30:52.825Z,1.58
2023-04-11T14:33:18.959Z,1.58
2023-04-11T14:35:46.586Z,1.80
2023-04-11T14:38:14.331Z,1.65
2023-04-11T14:40:40.869Z,1.50
2023-04-11T14:43:06.804Z,1.42
2023-04-11T14:45:34.288Z,1.80
2023-04-11T14:48:00.633Z,1.85
2023-04-11T14:50:29.155Z,1.58
2023-04-11T14:52:55.214Z,1.42
2023-04-11T14:55:21.239Z,1.73
2023-04-11T14:57:50.865Z,1.42
2023-04-11T15:00:23.877Z,1.60
2023-04-11T15:02:54.920Z,3.00
2023-04-11T15:05:23.274Z,2.35
2023-04-11T15:07:50.923Z,1.30
2023-04-11T15:10:20.100Z,1.38
2023-04-11T15:12:46.347Z,1.80
2023-04-11T15:15:12.885Z,1.48
2023-04-11T15:17:46.398Z,1.92
2023-04-11T15:20:16.197Z,1.35
2023-04-11T15:22:44.478Z,1.73
2023-04-11T15:25:13.091Z,2.50
2023-04-11T15:27:39.838Z,1.70
2023-04-11T15:32:47.637Z,1.65
2023-04-11T15:35:13.654Z,1.60
2023-04-11T15:37:41.156Z,1.58
2023-04-11T15:40:11.225Z,2.50
2023-04-11T15:42:37.616Z,1.92
2023-04-11T15:45:04.273Z,1.52
2023-04-11T15:47:30.716Z,1.65
2023-04-11T15:49:58.316Z,1.80
2023-04-11T15:52:24.164Z,1.88
2023-04-11T15:54:50.005Z,1.50
2023-04-11T15:57:19.360Z,1.90
2023-04-11T15:59:45.676Z,1.83
2023-04-11T16:02:11.869Z,2.40
2023-04-11T16:04:38.349Z,1.70
2023-04-11T16:07:05.902Z,1.70
2023-04-11T16:09:32.102Z,1.48
2023-04-11T16:11:57.915Z,2.30
2023-04-11T16:14:24.355Z,1.50
2023-04-11T16:16:52.869Z,1.95
2023-04-11T16:19:18.953Z,1.50
2023-04-11T16:21:45.062Z,2.20
2023-04-11T16:24:10.942Z,2.15
2023-04-11T16:26:36.920Z,1.55
2023-04-11T16:29:03.244Z,1.85
2023-04-11T16:31:31.318Z,1.45
2023-04-11T16:33:57.550Z,1.45
2023-04-11T16:36:23.695Z,2.85
2023-04-11T16:38:49.842Z,1.50
2023-04-11T16:41:18.794Z,1.35
2023-04-11T16:43:44.860Z,1.58
2023-04-11T16:46:12.796Z,1.25
2023-04-11T16:48:39.584Z,1.10
2023-04-11T16:51:05.842Z,1.63
2023-04-11T16:53:31.778Z,1.08
2023-04-11T16:55:57.681Z,1.42
2023-04-11T16:58:23.589Z,1.30
2023-04-11T17:00:50.428Z,1.23
2023-04-11T17:03:17.128Z,1.35
2023-04-11T17:05:45.191Z,1.20
2023-04-11T17:08:11.703Z,1.48
2023-04-11T17:10:37.605Z,1.23
2023-04-11T17:13:03.434Z,1.00
2023-04-11T17:15:29.960Z,1.27
2023-04-11T17:17:56.057Z,1.33
2023-04-11T17:20:22.621Z,2.03
2023-04-11T17:22:48.540Z,1.55
2023-04-11T17:25:14.434Z,2.22
2023-04-11T17:27:40.603Z,2.47
2023-04-11T17:30:11.479Z,1.50
2023-04-11T17:32:38.372Z,1.30
2023-04-11T17:35:07.621Z,1.48
2023-04-11T17:37:35.176Z,1.42
2023-04-11T17:40:01.369Z,1.35
2023-04-11T17:42:27.236Z,1.60
2023-04-11T17:44:54.657Z,1.90
2023-04-11T17:47:21.737Z,1.83
2023-04-11T17:49:47.845Z,1.88
2023-04-11T17:52:13.739Z,1.50
2023-04-11T17:54:39.571Z,3.05
2023-04-11T17:57:06.197Z,1.67
2023-04-11T17:59:32.090Z,2.13
2023-04-11T18:01:58.032Z,1.77
2023-04-11T18:04:24.153Z,1.95
2023-04-11T18:06:50.219Z,2.03
2023-04-11T18:09:16.472Z,1.88
2023-04-11T18:11:43.115Z,1.90
2023-04-11T18:14:09.152Z,1.60
2023-04-11T18:16:35.551Z,1.80
2023-04-11T18:19:01.452Z,2.13
2023-04-11T18:21:27.496Z,2.42
2023-04-11T18:23:53.529Z,2.42
2023-04-11T18:26:19.539Z,2.47
2023-04-11T18:28:45.371Z,2.58
2023-04-11T18:31:11.363Z,2.28
2023-04-11T18:33:41.908Z,2.00
2023-04-11T18:36:09.158Z,2.00
2023-04-11T18:38:35.112Z,1.98
2023-04-11T18:41:05.826Z,3.00
2023-04-11T18:43:33.352Z,2.50
2023-04-11T18:46:00.936Z,2.88
2023-04-11T18:48:26.809Z,3.50
2023-04-11T18:50:59.842Z,3.00
2023-04-11T18:53:27.593Z,2.85
2023-04-11T18:55:54.074Z,2.92
2023-04-11T18:58:23.125Z,2.35
2023-04-11T19:00:50.980Z,2.88
2023-04-11T19:03:17.321Z,3.50
2023-04-11T19:05:45.172Z,3.20
2023-04-11T19:08:11.417Z,3.55
2023-04-11T19:10:39.229Z,3.08
2023-04-11T19:13:05.697Z,3.63
2023-04-11T19:15:31.596Z,3.30
2023-04-11T19:17:57.694Z,3.20
2023-04-11T19:20:28.577Z,3.50
2023-04-11T19:22:54.560Z,3.28
2023-04-11T19:25:20.548Z,3.05
2023-04-11T19:27:46.706Z,2.65
2023-04-11T19:30:12.846Z,3.47
2023-04-11T19:32:42.217Z,2.72
2023-04-11T19:35:09.526Z,2.65
2023-04-11T19:37:35.828Z,3.10
2023-04-11T19:40:06.328Z,3.70
2023-04-11T19:42:35.924Z,2.63
2023-04-11T19:45:03.750Z,2.58
2023-04-11T19:47:30.698Z,2.33
2023-04-11T19:50:00.176Z,2.95
2023-04-11T19:52:26.706Z,2.20
2023-04-11T19:54:54.146Z,2.55
2023-04-11T19:57:21.868Z,3.80
2023-04-11T19:59:49.142Z,3.05
2023-04-11T20:02:15.112Z,3.00
2023-04-11T20:04:43.938Z,2.35
2023-04-11T20:07:09.844Z,3.05
2023-04-11T20:09:35.943Z,2.90
2023-04-11T20:12:02.622Z,3.35
2023-04-11T20:14:28.480Z,2.83
2023-04-11T20:16:54.435Z,2.40
2023-04-11T20:19:21.367Z,3.45
2023-04-11T20:21:47.383Z,2.40
2023-04-11T20:24:14.707Z,2.58
2023-04-11T20:26:40.541Z,3.75
2023-04-11T20:29:07.223Z,3.75
2023-04-11T20:31:33.530Z,2.85
2023-04-11T20:34:00.810Z,2.30
2023-04-11T20:36:28.654Z,3.10
2023-04-11T20:38:55.217Z,2.47
2023-04-11T20:41:21.684Z,1.90
2023-04-11T20:43:47.561Z,2.42
2023-04-11T20:46:13.563Z,2.25
2023-04-11T20:48:42.318Z,2.05
2023-04-11T20:51:09.110Z,2.40
2023-04-11T20:53:35.522Z,2.78
2023-04-11T20:56:01.869Z,2.65
2023-04-11T20:58:27.789Z,2.60
2023-04-11T21:00:54.040Z,2.13
2023-04-11T21:03:20.544Z,2.50
2023-04-11T21:05:46.525Z,2.40
2023-04-11T21:08:13.380Z,2.38
2023-04-11T21:10:39.387Z,1.88
2023-04-11T21:13:05.182Z,1.90
2023-04-11T21:15:34.922Z,1.83
2023-04-11T21:18:06.111Z,1.95
2023-04-11T21:20:33.822Z,1.60
2023-04-11T21:22:59.960Z,1.80
2023-04-11T21:25:25.972Z,2.30
2023-04-11T21:27:52.169Z,2.20
2023-04-11T21:30:18.481Z,2.05
2023-04-11T21:32:45.013Z,1.50
2023-04-11T21:35:11.389Z,1.67
2023-04-11T21:37:37.289Z,2.17
2023-04-11T21:40:03.675Z,2.05
2023-04-11T21:42:30.870Z,1.50
2023-04-11T21:44:57.039Z,2.05
2023-04-11T21:47:22.885Z,1.63
2023-04-11T21:49:49.177Z,1.30
2023-04-11T21:52:15.086Z,1.35
2023-04-11T21:54:44.313Z,1.75
2023-04-11T21:57:10.509Z,2.30
2023-04-11T21:59:37.794Z,1.50
2023-04-11T22:02:03.760Z,1.42
2023-04-11T22:04:31.385Z,1.67
2023-04-11T22:06:57.651Z,2.50
2023-04-11T22:09:23.725Z,1.38
2023-04-11T22:11:49.936Z,1.65
2023-04-11T22:14:15.979Z,2.22
2023-04-11T22:16:48.180Z,1.50
2023-04-11T22:19:17.193Z,1.98
2023-04-11T22:21:54.900Z,1.52
2023-04-11T22:24:30.187Z,1.90
2023-04-11T22:26:57.509Z,1.77
2023-04-11T22:29:29.439Z,1.45
2023-04-11T22:31:56.563Z,2.40
2023-04-11T22:34:23.776Z,1.80
2023-04-11T22:36:49.622Z,1.52
2023-04-11T22:39:15.669Z,1.88
2023-04-11T22:41:41.553Z,1.90
2023-04-11T22:44:07.471Z,1.98
2023-04-11T22:46:38.777Z,1.80
2023-04-11T22:49:05.766Z,1.95
2023-04-11T22:51:31.968Z,1.80
2023-04-11T22:53:58.138Z,1.50
2023-04-11T22:56:24.308Z,1.63
2023-04-11T22:58:51.932Z,1.88
2023-04-11T23:01:18.041Z,2.08
2023-04-11T23:03:43.876Z,1.67
2023-04-11T23:06:10.214Z,2.63
2023-04-11T23:08:36.367Z,1.77
2023-04-11T23:11:02.412Z,2.30
2023-04-11T23:13:28.454Z,1.92
2023-04-11T23:15:54.936Z,1.90
2023-04-11T23:18:20.769Z,1.90
2023-04-11T23:20:49.908Z,2.30
2023-04-11T23:23:16.049Z,2.03
2023-04-11T23:25:42.208Z,1.98
2023-04-11T23:28:08.239Z,1.90
2023-04-11T23:30:35.847Z,2.95
2023-04-11T23:33:02.120Z,1.55
2023-04-11T23:35:28.227Z,1.67
2023-04-11T23:37:54.223Z,2.35
2023-04-11T23:40:20.668Z,2.08
2023-04-11T23:42:46.530Z,1.85
2023-04-11T23:45:14.233Z,2.22
2023-04-11T23:47:40.526Z,2.90
2023-04-11T23:50:08.330Z,1.60
2023-04-11T23:52:34.515Z,2.22
2023-04-11T23:55:00.351Z,1.55
2023-04-11T23:57:26.394Z,1.65
2023-04-11T23:59:52.592Z,2.30
